Rochester Hills, Michigan
Current Conditions -  °F | °C
As of 3:35 AM on Tuesday 27 Jan 2015 (Local Time) from KVLL Reporting Station
Clear Clear  
Wind Chill: -9°   Ceiling: Unl
Heat Index: -9°   Visibility: 10mi
Dew Point: -12°   Wind: 3mph
Humidity: 79%   Direction: 360°N
Pressure: 30.01"   Gusts: NA
Location:  42.66°N, 83.16°W
Report Text: KVLL 270835Z AUTO 36003KT 10SM CLR M09/M12 A3001 RMK AO2 T10901120
Loading
Personal Weather Stations






























Interactive Weather Map New forecast layout! Learn more

10-Day Weather Forecast

Advertisements
Track Severe Weather on mobile